sensor_id;sensor_type;location;lat;lon;timestamp;P1;durP1;ratioP1;P2;durP2;ratioP2
77748;SDS011;66938;52.084;5.228;2023-05-29T00:00:56;18.7;;;5.11;;
77748;SDS011;66938;52.084;5.228;2023-05-29T00:02:32;18.8;;;5.4;;
77748;SDS011;66938;52.084;5.228;2023-05-29T00:04:08;19.11;;;5.9;;
77748;SDS011;66938;52.084;5.228;2023-05-29T00:05:44;20.3;;;5.3;;
77748;SDS011;66938;52.084;5.228;2023-05-29T00:08:56;16.0;;;5.11;;
77748;SDS011;66938;52.084;5.228;2023-05-29T00:10:33;15.5;;;4.7;;
77748;SDS011;66938;52.084;5.228;2023-05-29T00:12:09;18.0;;;4.91;;
77748;SDS011;66938;52.084;5.228;2023-05-29T00:15:21;16.7;;;5.4;;
77748;SDS011;66938;52.084;5.228;2023-05-29T00:16:57;17.2;;;5.2;;
77748;SDS011;66938;52.084;5.228;2023-05-29T00:18:33;16.9;;;4.8;;
77748;SDS011;66938;52.084;5.228;2023-05-29T00:21:47;17.41;;;5.3;;
77748;SDS011;66938;52.084;5.228;2023-05-29T00:23:23;18.2;;;5.4;;
77748;SDS011;66938;52.084;5.228;2023-05-29T00:24:59;16.5;;;5.6;;
77748;SDS011;66938;52.084;5.228;2023-05-29T00:28:11;17.2;;;5.6;;
77748;SDS011;66938;52.084;5.228;2023-05-29T00:29:47;15.5;;;4.8;;
77748;SDS011;66938;52.084;5.228;2023-05-29T00:31:23;17.61;;;5.4;;
77748;SDS011;66938;52.084;5.228;2023-05-29T00:32:59;15.5;;;4.61;;
77748;SDS011;66938;52.084;5.228;2023-05-29T00:36:12;16.2;;;5.0;;
77748;SDS011;66938;52.084;5.228;2023-05-29T00:37:48;17.8;;;5.3;;
77748;SDS011;66938;52.084;5.228;2023-05-29T00:39:24;17.5;;;5.11;;
77748;SDS011;66938;52.084;5.228;2023-05-29T00:42:36;15.2;;;4.91;;
77748;SDS011;66938;52.084;5.228;2023-05-29T00:44:12;16.8;;;5.7;;
77748;SDS011;66938;52.084;5.228;2023-05-29T00:45:49;18.5;;;5.4;;
77748;SDS011;66938;52.084;5.228;2023-05-29T00:49:02;15.8;;;4.8;;
77748;SDS011;66938;52.084;5.228;2023-05-29T00:50:41;16.61;;;5.11;;
77748;SDS011;66938;52.084;5.228;2023-05-29T00:52:19;18.3;;;4.7;;
77748;SDS011;66938;52.084;5.228;2023-05-29T00:53:55;13.3;;;4.41;;
77748;SDS011;66938;52.084;5.228;2023-05-29T00:57:11;17.7;;;5.5;;
77748;SDS011;66938;52.084;5.228;2023-05-29T00:58:49;16.5;;;5.0;;
77748;SDS011;66938;52.084;5.228;2023-05-29T01:00:27;17.0;;;4.8;;
77748;SDS011;66938;52.084;5.228;2023-05-29T01:03:40;19.41;;;5.5;;
77748;SDS011;66938;52.084;5.228;2023-05-29T01:05:17;15.3;;;4.8;;
77748;SDS011;66938;52.084;5.228;2023-05-29T01:06:53;15.5;;;4.61;;
77748;SDS011;66938;52.084;5.228;2023-05-29T01:08:30;15.0;;;4.61;;
77748;SDS011;66938;52.084;5.228;2023-05-29T01:11:45;16.8;;;4.91;;
77748;SDS011;66938;52.084;5.228;2023-05-29T01:13:31;17.0;;;4.8;;
77748;SDS011;66938;52.084;5.228;2023-05-29T01:15:14;15.3;;;4.41;;
77748;SDS011;66938;52.084;5.228;2023-05-29T01:17:00;13.5;;;4.41;;
77748;SDS011;66938;52.084;5.228;2023-05-29T01:20:31;16.7;;;4.7;;
77748;SDS011;66938;52.084;5.228;2023-05-29T01:22:19;17.11;;;4.91;;
77748;SDS011;66938;52.084;5.228;2023-05-29T01:24:18;17.7;;;5.4;;
77748;SDS011;66938;52.084;5.228;2023-05-29T01:26:11;15.3;;;4.3;;
77748;SDS011;66938;52.084;5.228;2023-05-29T01:27:57;17.3;;;4.7;;
77748;SDS011;66938;52.084;5.228;2023-05-29T01:29:39;16.11;;;4.8;;
77748;SDS011;66938;52.084;5.228;2023-05-29T01:33:00;15.9;;;4.61;;
77748;SDS011;66938;52.084;5.228;2023-05-29T01:34:38;16.61;;;5.11;;
77748;SDS011;66938;52.084;5.228;2023-05-29T01:36:14;15.6;;;4.8;;
77748;SDS011;66938;52.084;5.228;2023-05-29T01:37:50;14.5;;;4.5;;
77748;SDS011;66938;52.084;5.228;2023-05-29T01:41:03;15.4;;;4.41;;
77748;SDS011;66938;52.084;5.228;2023-05-29T01:42:40;17.61;;;4.8;;
77748;SDS011;66938;52.084;5.228;2023-05-29T01:44:17;15.6;;;4.5;;
77748;SDS011;66938;52.084;5.228;2023-05-29T01:47:31;14.3;;;4.3;;
77748;SDS011;66938;52.084;5.228;2023-05-29T01:49:07;14.5;;;4.41;;
77748;SDS011;66938;52.084;5.228;2023-05-29T01:50:44;17.5;;;5.2;;
77748;SDS011;66938;52.084;5.228;2023-05-29T01:53:58;14.7;;;4.91;;
77748;SDS011;66938;52.084;5.228;2023-05-29T01:55:34;14.5;;;4.61;;
77748;SDS011;66938;52.084;5.228;2023-05-29T01:57:10;17.11;;;4.3;;
77748;SDS011;66938;52.084;5.228;2023-05-29T01:58:48;17.3;;;5.0;;
77748;SDS011;66938;52.084;5.228;2023-05-29T02:02:05;15.2;;;4.61;;
77748;SDS011;66938;52.084;5.228;2023-05-29T02:03:42;13.0;;;4.3;;
77748;SDS011;66938;52.084;5.228;2023-05-29T02:05:18;15.3;;;4.5;;
77748;SDS011;66938;52.084;5.228;2023-05-29T02:08:30;15.6;;;4.61;;
77748;SDS011;66938;52.084;5.228;2023-05-29T02:10:07;13.0;;;4.7;;
77748;SDS011;66938;52.084;5.228;2023-05-29T02:11:44;16.7;;;5.3;;
77748;SDS011;66938;52.084;5.228;2023-05-29T02:13:20;15.2;;;4.61;;
77748;SDS011;66938;52.084;5.228;2023-05-29T02:16:32;15.2;;;4.5;;
77748;SDS011;66938;52.084;5.228;2023-05-29T02:18:09;15.9;;;4.91;;
77748;SDS011;66938;52.084;5.228;2023-05-29T02:19:48;14.6;;;4.41;;
77748;SDS011;66938;52.084;5.228;2023-05-29T02:23:01;17.0;;;4.8;;
77748;SDS011;66938;52.084;5.228;2023-05-29T02:24:37;14.1;;;4.5;;
77748;SDS011;66938;52.084;5.228;2023-05-29T02:26:13;15.5;;;4.5;;
77748;SDS011;66938;52.084;5.228;2023-05-29T02:29:25;15.2;;;4.5;;
77748;SDS011;66938;52.084;5.228;2023-05-29T02:31:01;16.3;;;4.2;;
77748;SDS011;66938;52.084;5.228;2023-05-29T02:32:38;16.0;;;4.8;;
77748;SDS011;66938;52.084;5.228;2023-05-29T02:34:15;17.41;;;4.91;;
77748;SDS011;66938;52.084;5.228;2023-05-29T02:37:27;16.3;;;4.5;;
77748;SDS011;66938;52.084;5.228;2023-05-29T02:39:03;15.8;;;4.7;;
77748;SDS011;66938;52.084;5.228;2023-05-29T02:40:39;17.2;;;5.3;;
77748;SDS011;66938;52.084;5.228;2023-05-29T02:43:51;13.5;;;4.41;;
77748;SDS011;66938;52.084;5.228;2023-05-29T02:45:27;17.0;;;4.7;;
77748;SDS011;66938;52.084;5.228;2023-05-29T02:47:04;16.0;;;4.2;;
77748;SDS011;66938;52.084;5.228;2023-05-29T02:50:17;16.7;;;4.7;;
77748;SDS011;66938;52.084;5.228;2023-05-29T02:51:53;15.2;;;5.0;;
77748;SDS011;66938;52.084;5.228;2023-05-29T02:53:29;15.2;;;4.2;;
77748;SDS011;66938;52.084;5.228;2023-05-29T02:56:43;17.7;;;4.91;;
77748;SDS011;66938;52.084;5.228;2023-05-29T02:58:20;16.4;;;4.3;;
77748;SDS011;66938;52.084;5.228;2023-05-29T02:59:56;16.8;;;4.8;;
77748;SDS011;66938;52.084;5.228;2023-05-29T03:01:32;14.6;;;4.5;;
77748;SDS011;66938;52.084;5.228;2023-05-29T03:04:45;14.8;;;4.5;;
77748;SDS011;66938;52.084;5.228;2023-05-29T03:06:21;14.5;;;4.7;;
77748;SDS011;66938;52.084;5.228;2023-05-29T03:07:57;15.8;;;4.61;;
77748;SDS011;66938;52.084;5.228;2023-05-29T03:11:10;15.0;;;4.61;;
77748;SDS011;66938;52.084;5.228;2023-05-29T03:12:46;15.4;;;4.61;;
77748;SDS011;66938;52.084;5.228;2023-05-29T03:14:22;16.0;;;5.3;;
77748;SDS011;66938;52.084;5.228;2023-05-29T03:17:34;15.0;;;4.41;;
77748;SDS011;66938;52.084;5.228;2023-05-29T03:19:10;17.11;;;4.7;;
77748;SDS011;66938;52.084;5.228;2023-05-29T03:20:47;14.4;;;4.3;;
77748;SDS011;66938;52.084;5.228;2023-05-29T03:22:23;14.3;;;4.61;;
77748;SDS011;66938;52.084;5.228;2023-05-29T03:25:35;18.11;;;4.91;;
77748;SDS011;66938;52.084;5.228;2023-05-29T03:27:11;14.5;;;4.41;;
77748;SDS011;66938;52.084;5.228;2023-05-29T03:28:47;12.9;;;4.3;;
77748;SDS011;66938;52.084;5.228;2023-05-29T03:31:59;15.0;;;4.3;;
77748;SDS011;66938;52.084;5.228;2023-05-29T03:33:36;16.61;;;4.5;;
77748;SDS011;66938;52.084;5.228;2023-05-29T03:35:12;16.0;;;4.41;;
77748;SDS011;66938;52.084;5.228;2023-05-29T03:38:23;14.3;;;4.5;;
77748;SDS011;66938;52.084;5.228;2023-05-29T03:39:59;15.5;;;4.41;;
77748;SDS011;66938;52.084;5.228;2023-05-29T03:41:35;15.3;;;4.41;;
77748;SDS011;66938;52.084;5.228;2023-05-29T03:44:48;14.4;;;4.2;;
77748;SDS011;66938;52.084;5.228;2023-05-29T03:46:24;17.11;;;4.61;;
77748;SDS011;66938;52.084;5.228;2023-05-29T03:48:00;16.0;;;4.41;;
77748;SDS011;66938;52.084;5.228;2023-05-29T03:49:36;17.5;;;4.5;;
77748;SDS011;66938;52.084;5.228;2023-05-29T03:52:48;15.5;;;4.3;;
77748;SDS011;66938;52.084;5.228;2023-05-29T03:54:25;14.6;;;4.3;;
77748;SDS011;66938;52.084;5.228;2023-05-29T03:56:01;15.8;;;4.5;;
77748;SDS011;66938;52.084;5.228;2023-05-29T03:59:13;16.4;;;4.3;;
77748;SDS011;66938;52.084;5.228;2023-05-29T04:00:49;12.7;;;4.0;;
77748;SDS011;66938;52.084;5.228;2023-05-29T04:02:25;12.7;;;4.0;;
77748;SDS011;66938;52.084;5.228;2023-05-29T04:05:38;13.3;;;4.2;;
77748;SDS011;66938;52.084;5.228;2023-05-29T04:07:14;13.0;;;4.2;;
77748;SDS011;66938;52.084;5.228;2023-05-29T04:08:50;15.1;;;4.7;;
77748;SDS011;66938;52.084;5.228;2023-05-29T04:10:26;12.5;;;4.0;;
77748;SDS011;66938;52.084;5.228;2023-05-29T04:13:39;17.41;;;4.3;;
77748;SDS011;66938;52.084;5.228;2023-05-29T04:15:15;15.7;;;4.0;;
77748;SDS011;66938;52.084;5.228;2023-05-29T04:16:51;14.0;;;4.41;;
77748;SDS011;66938;52.084;5.228;2023-05-29T04:20:04;15.3;;;4.3;;
77748;SDS011;66938;52.084;5.228;2023-05-29T04:21:41;13.1;;;4.0;;
77748;SDS011;66938;52.084;5.228;2023-05-29T04:23:17;14.5;;;4.3;;
77748;SDS011;66938;52.084;5.228;2023-05-29T04:26:29;12.8;;;3.9;;
77748;SDS011;66938;52.084;5.228;2023-05-29T04:28:05;15.8;;;4.61;;
77748;SDS011;66938;52.084;5.228;2023-05-29T04:29:42;15.0;;;4.2;;
77748;SDS011;66938;52.084;5.228;2023-05-29T04:32:54;16.9;;;4.41;;
77748;SDS011;66938;52.084;5.228;2023-05-29T04:34:30;14.5;;;4.2;;
77748;SDS011;66938;52.084;5.228;2023-05-29T04:36:06;13.8;;;3.9;;
77748;SDS011;66938;52.084;5.228;2023-05-29T04:37:42;17.3;;;4.8;;
77748;SDS011;66938;52.084;5.228;2023-05-29T04:40:56;16.0;;;4.41;;
77748;SDS011;66938;52.084;5.228;2023-05-29T04:42:32;12.9;;;4.0;;
77748;SDS011;66938;52.084;5.228;2023-05-29T04:44:08;17.5;;;5.0;;
77748;SDS011;66938;52.084;5.228;2023-05-29T04:47:20;17.5;;;4.41;;
77748;SDS011;66938;52.084;5.228;2023-05-29T04:48:56;16.11;;;4.61;;
77748;SDS011;66938;52.084;5.228;2023-05-29T04:50:32;16.8;;;4.41;;
77748;SDS011;66938;52.084;5.228;2023-05-29T04:53:44;12.5;;;4.0;;
77748;SDS011;66938;52.084;5.228;2023-05-29T04:55:20;14.9;;;4.3;;
77748;SDS011;66938;52.084;5.228;2023-05-29T04:56:56;11.2;;;3.9;;
77748;SDS011;66938;52.084;5.228;2023-05-29T04:58:32;14.6;;;4.3;;
77748;SDS011;66938;52.084;5.228;2023-05-29T05:01:45;13.2;;;4.0;;
77748;SDS011;66938;52.084;5.228;2023-05-29T05:03:21;14.8;;;4.2;;
77748;SDS011;66938;52.084;5.228;2023-05-29T05:04:57;14.7;;;4.7;;
77748;SDS011;66938;52.084;5.228;2023-05-29T05:08:10;17.0;;;4.41;;
77748;SDS011;66938;52.084;5.228;2023-05-29T05:09:46;14.5;;;4.41;;
77748;SDS011;66938;52.084;5.228;2023-05-29T05:11:22;17.0;;;5.0;;
77748;SDS011;66938;52.084;5.228;2023-05-29T05:14:35;12.4;;;4.1;;
77748;SDS011;66938;52.084;5.228;2023-05-29T05:16:11;14.9;;;4.0;;
77748;SDS011;66938;52.084;5.228;2023-05-29T05:17:48;16.61;;;4.7;;
77748;SDS011;66938;52.084;5.228;2023-05-29T05:21:00;14.2;;;4.3;;
77748;SDS011;66938;52.084;5.228;2023-05-29T05:22:36;12.9;;;4.0;;
77748;SDS011;66938;52.084;5.228;2023-05-29T05:24:12;14.3;;;4.5;;
77748;SDS011;66938;52.084;5.228;2023-05-29T05:25:48;15.0;;;4.3;;
77748;SDS011;66938;52.084;5.228;2023-05-29T05:29:00;13.1;;;3.9;;
77748;SDS011;66938;52.084;5.228;2023-05-29T05:30:37;14.6;;;4.61;;
77748;SDS011;66938;52.084;5.228;2023-05-29T05:32:13;13.9;;;4.1;;
77748;SDS011;66938;52.084;5.228;2023-05-29T05:35:25;15.0;;;4.2;;
77748;SDS011;66938;52.084;5.228;2023-05-29T05:37:01;12.1;;;3.9;;
77748;SDS011;66938;52.084;5.228;2023-05-29T05:38:37;15.4;;;4.1;;
77748;SDS011;66938;52.084;5.228;2023-05-29T05:41:50;16.2;;;4.41;;
77748;SDS011;66938;52.084;5.228;2023-05-29T05:43:26;14.4;;;4.2;;
77748;SDS011;66938;52.084;5.228;2023-05-29T05:45:02;14.2;;;4.1;;
77748;SDS011;66938;52.084;5.228;2023-05-29T05:46:39;16.3;;;4.5;;
77748;SDS011;66938;52.084;5.228;2023-05-29T05:49:51;13.8;;;3.9;;
77748;SDS011;66938;52.084;5.228;2023-05-29T05:51:27;12.9;;;4.2;;
77748;SDS011;66938;52.084;5.228;2023-05-29T05:53:03;15.3;;;4.1;;
77748;SDS011;66938;52.084;5.228;2023-05-29T05:56:16;15.7;;;4.5;;
77748;SDS011;66938;52.084;5.228;2023-05-29T05:57:52;14.7;;;4.3;;
77748;SDS011;66938;52.084;5.228;2023-05-29T05:59:28;15.2;;;4.7;;
77748;SDS011;66938;52.084;5.228;2023-05-29T06:02:40;16.5;;;4.7;;
77748;SDS011;66938;52.084;5.228;2023-05-29T06:04:16;14.2;;;4.5;;
77748;SDS011;66938;52.084;5.228;2023-05-29T06:05:53;14.2;;;4.5;;
77748;SDS011;66938;52.084;5.228;2023-05-29T06:09:05;17.2;;;4.2;;
77748;SDS011;66938;52.084;5.228;2023-05-29T06:10:41;15.3;;;4.3;;
77748;SDS011;66938;52.084;5.228;2023-05-29T06:12:17;15.2;;;4.41;;
77748;SDS011;66938;52.084;5.228;2023-05-29T06:13:53;17.11;;;4.5;;
77748;SDS011;66938;52.084;5.228;2023-05-29T06:17:05;14.6;;;4.41;;
77748;SDS011;66938;52.084;5.228;2023-05-29T06:18:42;13.4;;;4.3;;
77748;SDS011;66938;52.084;5.228;2023-05-29T06:20:18;16.3;;;4.61;;
77748;SDS011;66938;52.084;5.228;2023-05-29T06:23:30;16.3;;;4.61;;
77748;SDS011;66938;52.084;5.228;2023-05-29T06:25:06;17.0;;;4.7;;
77748;SDS011;66938;52.084;5.228;2023-05-29T06:26:42;16.61;;;4.91;;
77748;SDS011;66938;52.084;5.228;2023-05-29T06:29:55;14.2;;;4.5;;
77748;SDS011;66938;52.084;5.228;2023-05-29T06:31:31;12.7;;;4.0;;
77748;SDS011;66938;52.084;5.228;2023-05-29T06:33:07;16.2;;;4.3;;
77748;SDS011;66938;52.084;5.228;2023-05-29T06:36:19;13.6;;;4.2;;
77748;SDS011;66938;52.084;5.228;2023-05-29T06:37:55;15.1;;;4.7;;
77748;SDS011;66938;52.084;5.228;2023-05-29T06:39:32;11.8;;;3.7;;
77748;SDS011;66938;52.084;5.228;2023-05-29T06:41:08;14.3;;;4.1;;
77748;SDS011;66938;52.084;5.228;2023-05-29T06:44:20;13.6;;;4.0;;
77748;SDS011;66938;52.084;5.228;2023-05-29T06:45:56;13.7;;;3.8;;
77748;SDS011;66938;52.084;5.228;2023-05-29T06:47:32;15.2;;;4.3;;
77748;SDS011;66938;52.084;5.228;2023-05-29T06:50:45;11.2;;;3.8;;
77748;SDS011;66938;52.084;5.228;2023-05-29T06:52:21;12.8;;;3.6;;
77748;SDS011;66938;52.084;5.228;2023-05-29T06:53:57;14.8;;;4.0;;
77748;SDS011;66938;52.084;5.228;2023-05-29T06:57:09;12.5;;;3.7;;
77748;SDS011;66938;52.084;5.228;2023-05-29T06:58:45;12.1;;;3.9;;
77748;SDS011;66938;52.084;5.228;2023-05-29T07:00:21;12.7;;;4.1;;
77748;SDS011;66938;52.084;5.228;2023-05-29T07:01:57;11.4;;;3.5;;
77748;SDS011;66938;52.084;5.228;2023-05-29T07:05:10;12.6;;;3.8;;
77748;SDS011;66938;52.084;5.228;2023-05-29T07:06:46;12.8;;;3.8;;
77748;SDS011;66938;52.084;5.228;2023-05-29T07:08:22;13.5;;;3.7;;
77748;SDS011;66938;52.084;5.228;2023-05-29T07:11:35;11.1;;;3.6;;
77748;SDS011;66938;52.084;5.228;2023-05-29T07:13:14;11.6;;;3.6;;
77748;SDS011;66938;52.084;5.228;2023-05-29T07:14:51;13.2;;;3.9;;
77748;SDS011;66938;52.084;5.228;2023-05-29T07:18:04;14.0;;;4.0;;
77748;SDS011;66938;52.084;5.228;2023-05-29T07:19:40;14.2;;;3.9;;
77748;SDS011;66938;52.084;5.228;2023-05-29T07:21:16;12.1;;;3.7;;
77748;SDS011;66938;52.084;5.228;2023-05-29T07:22:53;16.4;;;4.5;;
77748;SDS011;66938;52.084;5.228;2023-05-29T07:26:05;12.6;;;3.7;;
77748;SDS011;66938;52.084;5.228;2023-05-29T07:27:41;11.7;;;3.9;;
77748;SDS011;66938;52.084;5.228;2023-05-29T07:29:18;13.7;;;3.8;;
77748;SDS011;66938;52.084;5.228;2023-05-29T07:32:30;11.2;;;3.6;;
77748;SDS011;66938;52.084;5.228;2023-05-29T07:34:06;10.9;;;3.2;;
77748;SDS011;66938;52.084;5.228;2023-05-29T07:35:42;13.3;;;3.9;;
77748;SDS011;66938;52.084;5.228;2023-05-29T07:38:54;12.7;;;3.9;;
77748;SDS011;66938;52.084;5.228;2023-05-29T07:40:31;12.8;;;3.8;;
77748;SDS011;66938;52.084;5.228;2023-05-29T07:42:07;13.2;;;3.6;;
77748;SDS011;66938;52.084;5.228;2023-05-29T07:45:19;13.3;;;3.7;;
77748;SDS011;66938;52.084;5.228;2023-05-29T07:46:55;12.8;;;4.0;;
77748;SDS011;66938;52.084;5.228;2023-05-29T07:48:31;11.8;;;3.6;;
77748;SDS011;66938;52.084;5.228;2023-05-29T07:50:08;12.5;;;3.7;;
77748;SDS011;66938;52.084;5.228;2023-05-29T07:53:21;13.5;;;3.8;;
77748;SDS011;66938;52.084;5.228;2023-05-29T07:54:57;10.6;;;3.5;;
77748;SDS011;66938;52.084;5.228;2023-05-29T07:56:33;11.2;;;4.0;;
77748;SDS011;66938;52.084;5.228;2023-05-29T07:59:45;12.9;;;3.6;;
77748;SDS011;66938;52.084;5.228;2023-05-29T08:01:21;10.8;;;3.2;;
77748;SDS011;66938;52.084;5.228;2023-05-29T08:02:57;12.9;;;4.0;;
77748;SDS011;66938;52.084;5.228;2023-05-29T08:06:10;10.4;;;3.5;;
77748;SDS011;66938;52.084;5.228;2023-05-29T08:07:46;12.5;;;3.5;;
77748;SDS011;66938;52.084;5.228;2023-05-29T08:09:22;11.8;;;3.8;;
77748;SDS011;66938;52.084;5.228;2023-05-29T08:12:34;11.3;;;3.5;;
77748;SDS011;66938;52.084;5.228;2023-05-29T08:14:10;12.5;;;4.1;;
77748;SDS011;66938;52.084;5.228;2023-05-29T08:15:47;11.8;;;3.5;;
77748;SDS011;66938;52.084;5.228;2023-05-29T08:17:23;11.4;;;3.3;;
77748;SDS011;66938;52.084;5.228;2023-05-29T08:20:35;15.0;;;3.7;;
77748;SDS011;66938;52.084;5.228;2023-05-29T08:22:12;12.5;;;3.6;;
77748;SDS011;66938;52.084;5.228;2023-05-29T08:23:49;11.1;;;3.8;;
77748;SDS011;66938;52.084;5.228;2023-05-29T08:27:02;13.9;;;3.8;;
77748;SDS011;66938;52.084;5.228;2023-05-29T08:28:38;10.6;;;3.7;;
77748;SDS011;66938;52.084;5.228;2023-05-29T08:30:14;15.8;;;4.61;;
77748;SDS011;66938;52.084;5.228;2023-05-29T08:33:27;13.9;;;4.1;;
77748;SDS011;66938;52.084;5.228;2023-05-29T08:35:04;13.1;;;3.6;;
77748;SDS011;66938;52.084;5.228;2023-05-29T08:36:39;11.5;;;3.7;;
77748;SDS011;66938;52.084;5.228;2023-05-29T08:38:15;12.3;;;3.8;;
77748;SDS011;66938;52.084;5.228;2023-05-29T08:41:27;11.2;;;3.6;;
77748;SDS011;66938;52.084;5.228;2023-05-29T08:43:14;11.5;;;3.4;;
77748;SDS011;66938;52.084;5.228;2023-05-29T08:44:55;11.5;;;3.5;;
77748;SDS011;66938;52.084;5.228;2023-05-29T08:48:09;11.2;;;3.4;;
77748;SDS011;66938;52.084;5.228;2023-05-29T08:49:49;14.6;;;3.8;;
77748;SDS011;66938;52.084;5.228;2023-05-29T08:51:31;14.2;;;4.1;;
77748;SDS011;66938;52.084;5.228;2023-05-29T08:53:12;13.2;;;3.6;;
77748;SDS011;66938;52.084;5.228;2023-05-29T08:56:24;13.5;;;3.7;;
77748;SDS011;66938;52.084;5.228;2023-05-29T08:58:00;12.2;;;3.4;;
77748;SDS011;66938;52.084;5.228;2023-05-29T08:59:39;13.9;;;3.5;;
77748;SDS011;66938;52.084;5.228;2023-05-29T09:01:17;11.4;;;3.3;;
77748;SDS011;66938;52.084;5.228;2023-05-29T09:04:30;9.5;;;3.2;;
77748;SDS011;66938;52.084;5.228;2023-05-29T09:06:06;12.4;;;3.5;;
77748;SDS011;66938;52.084;5.228;2023-05-29T09:07:42;13.3;;;3.9;;
77748;SDS011;66938;52.084;5.228;2023-05-29T09:10:55;9.6;;;3.6;;
77748;SDS011;66938;52.084;5.228;2023-05-29T09:12:32;10.4;;;3.5;;
77748;SDS011;66938;52.084;5.228;2023-05-29T09:14:10;9.5;;;3.4;;
77748;SDS011;66938;52.084;5.228;2023-05-29T09:16:07;10.5;;;3.4;;
77748;SDS011;66938;52.084;5.228;2023-05-29T09:19:19;9.9;;;3.5;;
77748;SDS011;66938;52.084;5.228;2023-05-29T09:20:55;13.3;;;4.1;;
77748;SDS011;66938;52.084;5.228;2023-05-29T09:22:32;11.2;;;3.6;;
77748;SDS011;66938;52.084;5.228;2023-05-29T09:25:44;10.9;;;3.5;;
77748;SDS011;66938;52.084;5.228;2023-05-29T09:27:27;9.21;;;3.3;;
77748;SDS011;66938;52.084;5.228;2023-05-29T09:29:03;9.4;;;2.9;;
77748;SDS011;66938;52.084;5.228;2023-05-29T09:30:40;10.21;;;3.4;;
77748;SDS011;66938;52.084;5.228;2023-05-29T09:33:54;10.6;;;3.2;;
77748;SDS011;66938;52.084;5.228;2023-05-29T09:35:33;10.5;;;3.6;;
77748;SDS011;66938;52.084;5.228;2023-05-29T09:37:11;11.1;;;3.3;;
77748;SDS011;66938;52.084;5.228;2023-05-29T09:40:25;11.4;;;3.2;;
77748;SDS011;66938;52.084;5.228;2023-05-29T09:42:01;10.5;;;3.2;;
77748;SDS011;66938;52.084;5.228;2023-05-29T09:43:38;9.0;;;3.3;;
77748;SDS011;66938;52.084;5.228;2023-05-29T09:45:16;10.8;;;3.5;;
77748;SDS011;66938;52.084;5.228;2023-05-29T09:48:34;11.9;;;3.5;;
77748;SDS011;66938;52.084;5.228;2023-05-29T09:50:17;10.8;;;3.4;;
77748;SDS011;66938;52.084;5.228;2023-05-29T09:51:54;11.1;;;3.3;;
77748;SDS011;66938;52.084;5.228;2023-05-29T09:53:31;9.31;;;3.1;;
77748;SDS011;66938;52.084;5.228;2023-05-29T09:56:44;10.5;;;3.3;;
77748;SDS011;66938;52.084;5.228;2023-05-29T09:58:21;11.1;;;3.3;;
77748;SDS011;66938;52.084;5.228;2023-05-29T09:59:58;10.0;;;3.4;;
77748;SDS011;66938;52.084;5.228;2023-05-29T10:03:15;9.31;;;3.2;;
77748;SDS011;66938;52.084;5.228;2023-05-29T10:04:51;10.5;;;3.5;;
77748;SDS011;66938;52.084;5.228;2023-05-29T10:06:27;10.4;;;3.2;;
77748;SDS011;66938;52.084;5.228;2023-05-29T10:09:44;10.1;;;3.1;;
77748;SDS011;66938;52.084;5.228;2023-05-29T10:11:23;11.2;;;3.5;;
77748;SDS011;66938;52.084;5.228;2023-05-29T10:13:00;9.31;;;3.3;;
77748;SDS011;66938;52.084;5.228;2023-05-29T10:14:38;12.0;;;3.3;;
77748;SDS011;66938;52.084;5.228;2023-05-29T10:17:57;12.1;;;3.6;;
77748;SDS011;66938;52.084;5.228;2023-05-29T10:19:39;9.71;;;3.2;;
77748;SDS011;66938;52.084;5.228;2023-05-29T10:21:17;9.5;;;3.1;;
77748;SDS011;66938;52.084;5.228;2023-05-29T10:22:55;11.2;;;3.4;;
77748;SDS011;66938;52.084;5.228;2023-05-29T10:26:14;11.2;;;3.4;;
77748;SDS011;66938;52.084;5.228;2023-05-29T10:27:59;9.31;;;3.3;;
77748;SDS011;66938;52.084;5.228;2023-05-29T10:29:37;11.1;;;3.9;;
77748;SDS011;66938;52.084;5.228;2023-05-29T10:31:19;9.9;;;3.1;;
77748;SDS011;66938;52.084;5.228;2023-05-29T10:35:05;10.6;;;3.6;;
77748;SDS011;66938;52.084;5.228;2023-05-29T10:36:52;11.1;;;3.5;;
77748;SDS011;66938;52.084;5.228;2023-05-29T10:38:37;13.0;;;3.6;;
77748;SDS011;66938;52.084;5.228;2023-05-29T10:40:16;11.2;;;3.9;;
77748;SDS011;66938;52.084;5.228;2023-05-29T10:41:59;9.81;;;3.7;;
77748;SDS011;66938;52.084;5.228;2023-05-29T10:45:47;10.6;;;3.5;;
77748;SDS011;66938;52.084;5.228;2023-05-29T10:47:24;11.7;;;4.0;;
77748;SDS011;66938;52.084;5.228;2023-05-29T10:49:00;13.2;;;3.6;;
77748;SDS011;66938;52.084;5.228;2023-05-29T10:50:36;11.3;;;3.8;;
77748;SDS011;66938;52.084;5.228;2023-05-29T10:52:12;10.6;;;3.6;;
77748;SDS011;66938;52.084;5.228;2023-05-29T10:55:33;11.5;;;3.4;;
77748;SDS011;66938;52.084;5.228;2023-05-29T10:57:10;12.8;;;3.5;;
77748;SDS011;66938;52.084;5.228;2023-05-29T10:58:49;9.4;;;3.5;;
77748;SDS011;66938;52.084;5.228;2023-05-29T11:00:28;10.1;;;3.9;;
77748;SDS011;66938;52.084;5.228;2023-05-29T11:03:40;12.1;;;4.2;;
77748;SDS011;66938;52.084;5.228;2023-05-29T11:05:18;11.3;;;3.6;;
77748;SDS011;66938;52.084;5.228;2023-05-29T11:06:55;10.21;;;3.3;;
77748;SDS011;66938;52.084;5.228;2023-05-29T11:10:11;10.21;;;3.3;;
77748;SDS011;66938;52.084;5.228;2023-05-29T11:11:48;11.6;;;3.8;;
77748;SDS011;66938;52.084;5.228;2023-05-29T11:13:51;12.2;;;3.9;;
77748;SDS011;66938;52.084;5.228;2023-05-29T11:15:28;11.0;;;3.9;;
77748;SDS011;66938;52.084;5.228;2023-05-29T11:18:41;13.1;;;3.9;;
77748;SDS011;66938;52.084;5.228;2023-05-29T11:20:24;11.4;;;3.6;;
77748;SDS011;66938;52.084;5.228;2023-05-29T11:22:31;11.3;;;3.5;;
77748;SDS011;66938;52.084;5.228;2023-05-29T11:24:27;12.0;;;3.9;;
77748;SDS011;66938;52.084;5.228;2023-05-29T11:26:04;10.9;;;3.7;;
77748;SDS011;66938;52.084;5.228;2023-05-29T11:27:40;10.1;;;3.6;;
77748;SDS011;66938;52.084;5.228;2023-05-29T11:30:59;10.5;;;3.9;;
77748;SDS011;66938;52.084;5.228;2023-05-29T11:32:38;11.4;;;3.5;;
77748;SDS011;66938;52.084;5.228;2023-05-29T11:34:17;9.4;;;3.7;;
77748;SDS011;66938;52.084;5.228;2023-05-29T11:37:34;10.9;;;3.6;;
77748;SDS011;66938;52.084;5.228;2023-05-29T11:39:10;11.9;;;3.6;;
77748;SDS011;66938;52.084;5.228;2023-05-29T11:40:46;8.71;;;3.5;;
77748;SDS011;66938;52.084;5.228;2023-05-29T11:42:22;10.5;;;3.3;;
77748;SDS011;66938;52.084;5.228;2023-05-29T11:45:37;14.0;;;4.8;;
77748;SDS011;66938;52.084;5.228;2023-05-29T11:47:12;9.81;;;3.6;;
77748;SDS011;66938;52.084;5.228;2023-05-29T11:48:48;11.0;;;3.6;;
77748;SDS011;66938;52.084;5.228;2023-05-29T11:52:06;10.5;;;4.1;;
77748;SDS011;66938;52.084;5.228;2023-05-29T11:53:46;11.4;;;3.6;;
77748;SDS011;66938;52.084;5.228;2023-05-29T11:55:23;10.4;;;3.5;;
77748;SDS011;66938;52.084;5.228;2023-05-29T11:57:01;11.4;;;3.7;;
77748;SDS011;66938;52.084;5.228;2023-05-29T12:00:16;11.4;;;3.7;;
77748;SDS011;66938;52.084;5.228;2023-05-29T12:01:53;10.8;;;3.7;;
77748;SDS011;66938;52.084;5.228;2023-05-29T12:03:29;10.4;;;4.2;;
77748;SDS011;66938;52.084;5.228;2023-05-29T12:06:42;9.81;;;3.6;;
77748;SDS011;66938;52.084;5.228;2023-05-29T12:08:20;13.2;;;4.2;;
77748;SDS011;66938;52.084;5.228;2023-05-29T12:09:57;12.7;;;4.3;;
77748;SDS011;66938;52.084;5.228;2023-05-29T12:11:44;10.1;;;3.9;;
77748;SDS011;66938;52.084;5.228;2023-05-29T12:14:58;9.6;;;3.7;;
77748;SDS011;66938;52.084;5.228;2023-05-29T12:16:34;11.6;;;3.6;;
77748;SDS011;66938;52.084;5.228;2023-05-29T12:18:11;11.1;;;3.8;;
77748;SDS011;66938;52.084;5.228;2023-05-29T12:21:23;11.0;;;3.8;;
77748;SDS011;66938;52.084;5.228;2023-05-29T12:23:00;8.71;;;3.8;;
77748;SDS011;66938;52.084;5.228;2023-05-29T12:24:37;12.0;;;4.3;;
77748;SDS011;66938;52.084;5.228;2023-05-29T12:26:13;11.1;;;4.0;;
77748;SDS011;66938;52.084;5.228;2023-05-29T12:29:29;10.6;;;4.0;;
77748;SDS011;66938;52.084;5.228;2023-05-29T12:31:06;13.5;;;4.2;;
77748;SDS011;66938;52.084;5.228;2023-05-29T12:32:42;12.3;;;4.2;;
77748;SDS011;66938;52.084;5.228;2023-05-29T12:36:04;12.7;;;4.3;;
77748;SDS011;66938;52.084;5.228;2023-05-29T12:37:42;11.1;;;3.9;;
77748;SDS011;66938;52.084;5.228;2023-05-29T12:39:19;11.6;;;4.2;;
77748;SDS011;66938;52.084;5.228;2023-05-29T12:40:55;12.0;;;4.2;;
77748;SDS011;66938;52.084;5.228;2023-05-29T12:44:08;11.2;;;4.1;;